This is the latest recevied weather packets stored in our database for station/object KELD. If no packets are shown the sender has not sent any weather packets the latest 10 day(s).
| Time | Temp. | Humidity | Pressure | Rain* | Wind** | Luminosity | Snow |
|---|---|---|---|---|---|---|---|
| 1777735410 | 17.78° C | 39% | 1020.7 hPa | - | - | - | - |
| 1777734811 | 17.78° C | 39% | 1020.7 hPa | - | - | - | - |
| 1777733011 | 15.56° C | 63% | 1020.7 hPa | - | - | - | - |
| 1777732413 | 15.56° C | 63% | 1020.7 hPa | - | - | - | - |
| 1777731811 | 15.56° C | 63% | 1020.7 hPa | - | - | - | - |
| 1777731211 | 15.56° C | 63% | 1020.7 hPa | - | - | - | - |
| 1777730614 | 15.56° C | 63% | 1020.7 hPa | - | - | - | - |
| 1777730014 | 11.67° C | 81% | 1020 hPa | - | - | - | - |
| 1777728815 | 11.67° C | 81% | 1020 hPa | - | - | - | - |
| 1777728214 | 11.67° C | 81% | 1020 hPa | - | - | - | - |
| 1777723413 | 7.78° C | 100% | 1019 hPa | - | - | - | - |
| 1777722812 | 7.78° C | 93% | 1017.9 hPa | - | - | - | - |
| 1777722212 | 7.78° C | 93% | 1017.9 hPa | - | - | - | - |
| 1777721614 | 7.78° C | 93% | 1017.9 hPa | - | - | - | - |
| 1777721015 | 7.78° C | 93% | 1017.9 hPa | - | - | - | - |
| 1777720413 | 7.78° C | 93% | 1017.9 hPa | - | - | - | - |
| 1777719815 | 7.78° C | 93% | 1017.9 hPa | - | - | - | - |
| 1777719212 | 8.89° C | 93% | 1017.6 hPa | - | - | - | - |
| 1777718610 | 8.89° C | 93% | 1017.6 hPa | - | - | - | - |
| 1777718010 | 8.89° C | 93% | 1017.6 hPa | - | - | - | - |
| 1777717414 | 8.89° C | 93% | 1017.6 hPa | - | - | - | - |
| 1777716812 | 8.89° C | 93% | 1017.6 hPa | - | - | - | - |
| 1777716214 | 8.89° C | 93% | 1017.6 hPa | - | - | - | - |
| 1777715612 | 10° C | 93% | 1017.3 hPa | - | - | - | - |
| 1777715015 | 10° C | 93% | 1017.3 hPa | - | - | - | - |
* Rain since midnight (hover to see other rain measurements)
** Current wind speed in m/s (hover to see current wind gust speed)